sensor_id;sensor_type;location;lat;lon;timestamp;pressure;altitude;pressure_sealevel;temperature;humidity
72636;BME280;60679;48.888;15.544;2024-02-26T00:00:09;94895.16;;;-0.87;94.17
72636;BME280;60679;48.888;15.544;2024-02-26T00:02:36;94906.56;;;-0.87;94.12
72636;BME280;60679;48.888;15.544;2024-02-26T00:05:05;94898.00;;;-0.89;93.99
72636;BME280;60679;48.888;15.544;2024-02-26T00:07:31;94897.44;;;-0.84;94.12
72636;BME280;60679;48.888;15.544;2024-02-26T00:09:56;94908.09;;;-0.78;94.07
72636;BME280;60679;48.888;15.544;2024-02-26T00:12:21;94908.31;;;-0.79;94.00
72636;BME280;60679;48.888;15.544;2024-02-26T00:14:47;94899.91;;;-0.83;94.16
72636;BME280;60679;48.888;15.544;2024-02-26T00:17:14;94898.13;;;-0.76;94.01
72636;BME280;60679;48.888;15.544;2024-02-26T00:19:40;94900.66;;;-0.68;94.32
72636;BME280;60679;48.888;15.544;2024-02-26T00:22:06;94889.06;;;-0.67;94.08
72636;BME280;60679;48.888;15.544;2024-02-26T00:24:31;94887.81;;;-0.71;94.15
72636;BME280;60679;48.888;15.544;2024-02-26T00:26:57;94897.97;;;-0.74;94.02
72636;BME280;60679;48.888;15.544;2024-02-26T00:29:22;94892.84;;;-0.76;94.07
72636;BME280;60679;48.888;15.544;2024-02-26T00:31:48;94886.59;;;-0.68;94.12
72636;BME280;60679;48.888;15.544;2024-02-26T00:34:13;94883.50;;;-0.72;94.12
72636;BME280;60679;48.888;15.544;2024-02-26T00:36:39;94882.88;;;-0.74;94.15
72636;BME280;60679;48.888;15.544;2024-02-26T00:39:04;94884.25;;;-0.78;94.02
72636;BME280;60679;48.888;15.544;2024-02-26T00:41:30;94879.53;;;-0.82;94.26
72636;BME280;60679;48.888;15.544;2024-02-26T00:43:55;94871.97;;;-0.85;94.06
72636;BME280;60679;48.888;15.544;2024-02-26T00:46:20;94867.03;;;-0.88;94.20
72636;BME280;60679;48.888;15.544;2024-02-26T00:48:46;94869.44;;;-0.93;94.37
72636;BME280;60679;48.888;15.544;2024-02-26T00:51:11;94863.50;;;-0.95;94.20
72636;BME280;60679;48.888;15.544;2024-02-26T00:53:36;94870.34;;;-1.01;94.19
72636;BME280;60679;48.888;15.544;2024-02-26T00:56:02;94869.91;;;-1.04;94.11
72636;BME280;60679;48.888;15.544;2024-02-26T00:58:27;94871.47;;;-1.10;94.27
72636;BME280;60679;48.888;15.544;2024-02-26T01:00:53;94865.09;;;-1.16;94.24
72636;BME280;60679;48.888;15.544;2024-02-26T01:03:18;94865.09;;;-1.16;94.28
72636;BME280;60679;48.888;15.544;2024-02-26T01:05:44;94866.66;;;-1.21;94.25
72636;BME280;60679;48.888;15.544;2024-02-26T01:08:10;94862.75;;;-1.25;94.24
72636;BME280;60679;48.888;15.544;2024-02-26T01:10:35;94860.38;;;-1.20;94.21
72636;BME280;60679;48.888;15.544;2024-02-26T01:13:01;94869.31;;;-1.21;94.27
72636;BME280;60679;48.888;15.544;2024-02-26T01:15:27;94867.84;;;-1.24;94.16
72636;BME280;60679;48.888;15.544;2024-02-26T01:17:52;94867.44;;;-1.27;94.33
72636;BME280;60679;48.888;15.544;2024-02-26T01:20:18;94858.47;;;-1.26;94.33
72636;BME280;60679;48.888;15.544;2024-02-26T01:22:44;94865.03;;;-1.22;94.23
72636;BME280;60679;48.888;15.544;2024-02-26T01:25:10;94860.00;;;-1.17;94.32
72636;BME280;60679;48.888;15.544;2024-02-26T01:27:39;94852.94;;;-1.10;94.35
72636;BME280;60679;48.888;15.544;2024-02-26T01:30:06;94851.94;;;-1.09;94.36
72636;BME280;60679;48.888;15.544;2024-02-26T01:32:32;94848.59;;;-1.18;94.28
72636;BME280;60679;48.888;15.544;2024-02-26T01:34:57;94849.53;;;-1.25;94.20
72636;BME280;60679;48.888;15.544;2024-02-26T01:37:23;94841.38;;;-1.24;94.40
72636;BME280;60679;48.888;15.544;2024-02-26T01:39:48;94845.69;;;-1.23;94.29
72636;BME280;60679;48.888;15.544;2024-02-26T01:42:14;94842.47;;;-1.18;94.39
72636;BME280;60679;48.888;15.544;2024-02-26T01:44:39;94845.19;;;-1.11;94.51
72636;BME280;60679;48.888;15.544;2024-02-26T01:47:11;94841.59;;;-1.04;94.52
72636;BME280;60679;48.888;15.544;2024-02-26T01:49:37;94841.06;;;-0.99;94.56
72636;BME280;60679;48.888;15.544;2024-02-26T01:52:05;94830.97;;;-1.10;94.36
72636;BME280;60679;48.888;15.544;2024-02-26T01:54:31;94829.59;;;-1.21;94.27
72636;BME280;60679;48.888;15.544;2024-02-26T01:56:59;94831.38;;;-1.28;94.24
72636;BME280;60679;48.888;15.544;2024-02-26T01:59:25;94829.34;;;-1.26;94.36
72636;BME280;60679;48.888;15.544;2024-02-26T02:01:54;94819.00;;;-1.21;94.35
72636;BME280;60679;48.888;15.544;2024-02-26T02:04:21;94818.22;;;-1.22;94.50
72636;BME280;60679;48.888;15.544;2024-02-26T02:06:48;94809.81;;;-1.25;94.34
72636;BME280;60679;48.888;15.544;2024-02-26T02:09:14;94817.31;;;-1.29;94.35
72636;BME280;60679;48.888;15.544;2024-02-26T02:11:39;94811.84;;;-1.27;94.36
72636;BME280;60679;48.888;15.544;2024-02-26T02:14:05;94816.47;;;-1.29;94.42
72636;BME280;60679;48.888;15.544;2024-02-26T02:16:31;94812.75;;;-1.35;94.43
72636;BME280;60679;48.888;15.544;2024-02-26T02:18:57;94810.69;;;-1.39;94.31
72636;BME280;60679;48.888;15.544;2024-02-26T02:21:23;94809.22;;;-1.42;94.35
72636;BME280;60679;48.888;15.544;2024-02-26T02:23:48;94812.88;;;-1.43;94.27
72636;BME280;60679;48.888;15.544;2024-02-26T02:26:14;94805.66;;;-1.49;94.23
72636;BME280;60679;48.888;15.544;2024-02-26T02:28:40;94812.88;;;-1.43;94.38
72636;BME280;60679;48.888;15.544;2024-02-26T02:31:07;94805.56;;;-1.41;94.43
72636;BME280;60679;48.888;15.544;2024-02-26T02:33:34;94812.03;;;-1.43;94.44
72636;BME280;60679;48.888;15.544;2024-02-26T02:35:59;94815.50;;;-1.43;94.38
72636;BME280;60679;48.888;15.544;2024-02-26T02:38:24;94807.88;;;-1.52;94.33
72636;BME280;60679;48.888;15.544;2024-02-26T02:40:53;94809.44;;;-1.58;94.24
72636;BME280;60679;48.888;15.544;2024-02-26T02:43:19;94807.59;;;-1.57;94.42
72636;BME280;60679;48.888;15.544;2024-02-26T02:45:44;94808.06;;;-1.54;94.31
72636;BME280;60679;48.888;15.544;2024-02-26T02:48:11;94802.19;;;-1.49;94.17
72636;BME280;60679;48.888;15.544;2024-02-26T02:50:36;94805.75;;;-1.42;94.54
72636;BME280;60679;48.888;15.544;2024-02-26T02:53:02;94797.25;;;-1.38;94.41
72636;BME280;60679;48.888;15.544;2024-02-26T02:55:27;94801.66;;;-1.24;94.59
72636;BME280;60679;48.888;15.544;2024-02-26T02:57:53;94797.06;;;-1.15;94.65
72636;BME280;60679;48.888;15.544;2024-02-26T03:00:18;94793.09;;;-1.04;94.55
72636;BME280;60679;48.888;15.544;2024-02-26T03:02:43;94796.91;;;-0.92;94.68
72636;BME280;60679;48.888;15.544;2024-02-26T03:05:10;94798.53;;;-0.91;94.67
72636;BME280;60679;48.888;15.544;2024-02-26T03:07:35;94790.91;;;-1.01;94.62
72636;BME280;60679;48.888;15.544;2024-02-26T03:10:01;94789.28;;;-1.02;94.52
72636;BME280;60679;48.888;15.544;2024-02-26T03:12:26;94790.72;;;-0.99;94.60
72636;BME280;60679;48.888;15.544;2024-02-26T03:14:53;94785.84;;;-0.96;94.58
72636;BME280;60679;48.888;15.544;2024-02-26T03:17:19;94784.09;;;-0.89;94.55
72636;BME280;60679;48.888;15.544;2024-02-26T03:19:45;94783.78;;;-0.79;94.48
72636;BME280;60679;48.888;15.544;2024-02-26T03:22:18;94786.09;;;-0.70;94.37
72636;BME280;60679;48.888;15.544;2024-02-26T03:24:44;94791.22;;;-0.68;94.60
72636;BME280;60679;48.888;15.544;2024-02-26T03:27:09;94790.84;;;-0.65;94.71
72636;BME280;60679;48.888;15.544;2024-02-26T03:29:35;94796.75;;;-0.63;94.61
72636;BME280;60679;48.888;15.544;2024-02-26T03:32:01;94785.94;;;-0.62;94.66
72636;BME280;60679;48.888;15.544;2024-02-26T03:34:26;94800.69;;;-0.52;94.58
72636;BME280;60679;48.888;15.544;2024-02-26T03:36:52;94795.91;;;-0.42;94.67
72636;BME280;60679;48.888;15.544;2024-02-26T03:39:17;94790.69;;;-0.29;94.64
72636;BME280;60679;48.888;15.544;2024-02-26T03:41:43;94786.66;;;-0.19;94.75
72636;BME280;60679;48.888;15.544;2024-02-26T03:44:08;94791.78;;;-0.17;94.69
72636;BME280;60679;48.888;15.544;2024-02-26T03:46:33;94788.50;;;-0.19;94.73
72636;BME280;60679;48.888;15.544;2024-02-26T03:48:59;94782.41;;;-0.13;94.65
72636;BME280;60679;48.888;15.544;2024-02-26T03:51:24;94778.16;;;-0.08;94.69
72636;BME280;60679;48.888;15.544;2024-02-26T03:53:50;94777.22;;;0.00;94.67
72636;BME280;60679;48.888;15.544;2024-02-26T03:56:15;94764.16;;;0.05;94.71
72636;BME280;60679;48.888;15.544;2024-02-26T03:58:40;94769.47;;;0.12;94.78
72636;BME280;60679;48.888;15.544;2024-02-26T04:01:09;94771.34;;;0.18;94.64
72636;BME280;60679;48.888;15.544;2024-02-26T04:03:34;94767.69;;;0.19;94.78
72636;BME280;60679;48.888;15.544;2024-02-26T04:06:00;94767.75;;;0.25;94.85
72636;BME280;60679;48.888;15.544;2024-02-26T04:08:26;94772.22;;;0.31;94.76
72636;BME280;60679;48.888;15.544;2024-02-26T04:10:51;94774.88;;;0.31;94.74
72636;BME280;60679;48.888;15.544;2024-02-26T04:13:17;94770.00;;;0.35;94.77
72636;BME280;60679;48.888;15.544;2024-02-26T04:15:43;94775.75;;;0.38;94.60
72636;BME280;60679;48.888;15.544;2024-02-26T04:18:08;94766.34;;;0.42;94.70
72636;BME280;60679;48.888;15.544;2024-02-26T04:20:33;94767.59;;;0.46;94.71
72636;BME280;60679;48.888;15.544;2024-02-26T04:22:59;94769.88;;;0.49;94.75
72636;BME280;60679;48.888;15.544;2024-02-26T04:25:24;94768.25;;;0.55;94.61
72636;BME280;60679;48.888;15.544;2024-02-26T04:27:49;94775.59;;;0.59;94.72
72636;BME280;60679;48.888;15.544;2024-02-26T04:30:15;94777.03;;;0.55;94.67
72636;BME280;60679;48.888;15.544;2024-02-26T04:32:42;94779.47;;;0.57;94.58
72636;BME280;60679;48.888;15.544;2024-02-26T04:35:07;94777.25;;;0.61;94.71
72636;BME280;60679;48.888;15.544;2024-02-26T04:37:33;94780.75;;;0.68;94.80
72636;BME280;60679;48.888;15.544;2024-02-26T04:39:59;94776.66;;;0.72;94.81
72636;BME280;60679;48.888;15.544;2024-02-26T04:42:25;94768.13;;;0.76;94.85
72636;BME280;60679;48.888;15.544;2024-02-26T04:44:50;94771.38;;;0.78;94.73
72636;BME280;60679;48.888;15.544;2024-02-26T04:47:15;94774.03;;;0.78;94.63
72636;BME280;60679;48.888;15.544;2024-02-26T04:49:41;94783.22;;;0.76;95.08
72636;BME280;60679;48.888;15.544;2024-02-26T04:52:06;94771.81;;;0.88;94.90
72636;BME280;60679;48.888;15.544;2024-02-26T04:54:32;94771.81;;;0.88;94.79
72636;BME280;60679;48.888;15.544;2024-02-26T04:56:57;94758.34;;;0.90;94.92
72636;BME280;60679;48.888;15.544;2024-02-26T04:59:22;94766.69;;;0.93;94.74
72636;BME280;60679;48.888;15.544;2024-02-26T05:01:48;94763.63;;;0.96;94.80
72636;BME280;60679;48.888;15.544;2024-02-26T05:04:13;94765.72;;;1.01;94.80
72636;BME280;60679;48.888;15.544;2024-02-26T05:06:38;94763.66;;;1.03;94.85
72636;BME280;60679;48.888;15.544;2024-02-26T05:09:04;94767.97;;;1.04;94.69
72636;BME280;60679;48.888;15.544;2024-02-26T05:11:29;94758.56;;;1.08;94.70
72636;BME280;60679;48.888;15.544;2024-02-26T05:13:54;94766.53;;;1.14;94.85
72636;BME280;60679;48.888;15.544;2024-02-26T05:16:20;94764.72;;;1.15;94.78
72636;BME280;60679;48.888;15.544;2024-02-26T05:18:47;94763.47;;;1.17;94.73
72636;BME280;60679;48.888;15.544;2024-02-26T05:21:12;94768.16;;;1.22;94.81
72636;BME280;60679;48.888;15.544;2024-02-26T05:23:37;94774.31;;;1.23;94.75
72636;BME280;60679;48.888;15.544;2024-02-26T05:26:03;94774.94;;;1.18;94.79
72636;BME280;60679;48.888;15.544;2024-02-26T05:28:28;94774.94;;;1.18;94.73
72636;BME280;60679;48.888;15.544;2024-02-26T05:30:54;94765.13;;;1.19;94.58
72636;BME280;60679;48.888;15.544;2024-02-26T05:33:19;94769.41;;;1.20;94.81
72636;BME280;60679;48.888;15.544;2024-02-26T05:35:44;94776.38;;;1.21;94.82
72636;BME280;60679;48.888;15.544;2024-02-26T05:38:10;94765.91;;;1.19;94.76
72636;BME280;60679;48.888;15.544;2024-02-26T05:40:35;94769.00;;;1.23;94.81
72636;BME280;60679;48.888;15.544;2024-02-26T05:43:00;94769.00;;;1.23;94.63
72636;BME280;60679;48.888;15.544;2024-02-26T05:45:26;94764.50;;;1.23;94.90
72636;BME280;60679;48.888;15.544;2024-02-26T05:47:51;94759.78;;;1.25;94.83
72636;BME280;60679;48.888;15.544;2024-02-26T05:50:17;94769.19;;;1.28;94.93
72636;BME280;60679;48.888;15.544;2024-02-26T05:52:42;94764.53;;;1.30;94.72
72636;BME280;60679;48.888;15.544;2024-02-26T05:55:08;94771.88;;;1.34;94.89
72636;BME280;60679;48.888;15.544;2024-02-26T05:57:34;94795.81;;;1.41;94.91
72636;BME280;60679;48.888;15.544;2024-02-26T06:00:03;94785.16;;;1.47;94.85
72636;BME280;60679;48.888;15.544;2024-02-26T06:02:32;94788.03;;;1.52;94.72
72636;BME280;60679;48.888;15.544;2024-02-26T06:04:58;94791.50;;;1.59;94.83
72636;BME280;60679;48.888;15.544;2024-02-26T06:07:23;94787.63;;;1.62;94.87
72636;BME280;60679;48.888;15.544;2024-02-26T06:09:49;94788.84;;;1.66;94.64
72636;BME280;60679;48.888;15.544;2024-02-26T06:12:14;94787.63;;;1.68;94.63
72636;BME280;60679;48.888;15.544;2024-02-26T06:14:43;94787.81;;;1.73;94.80
72636;BME280;60679;48.888;15.544;2024-02-26T06:17:08;94783.09;;;1.75;94.58
72636;BME280;60679;48.888;15.544;2024-02-26T06:19:34;94786.41;;;1.78;94.21
72636;BME280;60679;48.888;15.544;2024-02-26T06:21:59;94787.00;;;1.80;94.59
72636;BME280;60679;48.888;15.544;2024-02-26T06:24:24;94794.75;;;1.81;94.45
72636;BME280;60679;48.888;15.544;2024-02-26T06:26:50;94798.25;;;1.82;94.45
72636;BME280;60679;48.888;15.544;2024-02-26T06:29:15;94807.66;;;1.84;94.51
72636;BME280;60679;48.888;15.544;2024-02-26T06:31:42;94816.69;;;1.83;94.40
72636;BME280;60679;48.888;15.544;2024-02-26T06:34:08;94816.03;;;1.81;94.30
72636;BME280;60679;48.888;15.544;2024-02-26T06:36:33;94823.63;;;1.84;94.23
72636;BME280;60679;48.888;15.544;2024-02-26T06:39:00;94826.91;;;1.86;94.30
72636;BME280;60679;48.888;15.544;2024-02-26T06:41:25;94832.44;;;1.91;94.25
72636;BME280;60679;48.888;15.544;2024-02-26T06:43:53;94842.03;;;1.99;94.20
72636;BME280;60679;48.888;15.544;2024-02-26T06:46:19;94844.50;;;2.00;94.19
72636;BME280;60679;48.888;15.544;2024-02-26T06:48:44;94841.81;;;2.07;94.04
72636;BME280;60679;48.888;15.544;2024-02-26T06:51:09;94848.56;;;2.16;94.08
72636;BME280;60679;48.888;15.544;2024-02-26T06:53:35;94855.75;;;2.15;94.02
72636;BME280;60679;48.888;15.544;2024-02-26T06:56:00;94842.84;;;2.12;94.17
72636;BME280;60679;48.888;15.544;2024-02-26T06:58:26;94847.56;;;2.10;93.95
72636;BME280;60679;48.888;15.544;2024-02-26T07:00:51;94842.84;;;2.19;93.99
72636;BME280;60679;48.888;15.544;2024-02-26T07:03:16;94834.22;;;2.30;94.05
72636;BME280;60679;48.888;15.544;2024-02-26T07:05:42;94829.47;;;2.39;94.07
72636;BME280;60679;48.888;15.544;2024-02-26T07:08:09;94833.16;;;2.44;93.86
72636;BME280;60679;48.888;15.544;2024-02-26T07:10:34;94828.22;;;2.48;93.94
72636;BME280;60679;48.888;15.544;2024-02-26T07:13:00;94830.25;;;2.46;93.95
72636;BME280;60679;48.888;15.544;2024-02-26T07:15:25;94823.09;;;2.46;93.93
72636;BME280;60679;48.888;15.544;2024-02-26T07:17:51;94829.84;;;2.55;93.99
72636;BME280;60679;48.888;15.544;2024-02-26T07:20:16;94832.50;;;2.62;93.67
72636;BME280;60679;48.888;15.544;2024-02-26T07:22:43;94829.00;;;2.68;93.66
72636;BME280;60679;48.888;15.544;2024-02-26T07:25:09;94828.16;;;2.67;93.55
72636;BME280;60679;48.888;15.544;2024-02-26T07:27:38;94837.41;;;2.65;93.45
72636;BME280;60679;48.888;15.544;2024-02-26T07:30:04;94837.34;;;2.71;93.50
72636;BME280;60679;48.888;15.544;2024-02-26T07:32:30;94838.34;;;2.77;93.45
72636;BME280;60679;48.888;15.544;2024-02-26T07:34:55;94837.56;;;2.76;93.50
72636;BME280;60679;48.888;15.544;2024-02-26T07:37:21;94837.53;;;2.83;93.60
72636;BME280;60679;48.888;15.544;2024-02-26T07:39:46;94836.69;;;2.89;93.57
72636;BME280;60679;48.888;15.544;2024-02-26T07:42:11;94845.69;;;2.95;93.46
72636;BME280;60679;48.888;15.544;2024-02-26T07:44:37;94846.84;;;3.05;93.27
72636;BME280;60679;48.888;15.544;2024-02-26T07:47:02;94848.06;;;3.09;92.98
72636;BME280;60679;48.888;15.544;2024-02-26T07:49:28;94853.38;;;3.16;92.90
72636;BME280;60679;48.888;15.544;2024-02-26T07:51:53;94848.06;;;3.16;92.91
72636;BME280;60679;48.888;15.544;2024-02-26T07:54:19;94859.09;;;3.19;92.97
72636;BME280;60679;48.888;15.544;2024-02-26T07:56:45;94862.16;;;3.23;93.01
72636;BME280;60679;48.888;15.544;2024-02-26T07:59:10;94858.66;;;3.22;92.75
72636;BME280;60679;48.888;15.544;2024-02-26T08:01:38;94864.41;;;3.26;92.90
72636;BME280;60679;48.888;15.544;2024-02-26T08:04:06;94862.53;;;3.33;92.85
72636;BME280;60679;48.888;15.544;2024-02-26T08:06:32;94864.31;;;3.39;92.69
72636;BME280;60679;48.888;15.544;2024-02-26T08:08:57;94862.47;;;3.39;92.70
72636;BME280;60679;48.888;15.544;2024-02-26T08:11:22;94862.03;;;3.42;92.74
72636;BME280;60679;48.888;15.544;2024-02-26T08:13:48;94853.19;;;3.48;92.73
72636;BME280;60679;48.888;15.544;2024-02-26T08:16:13;94858.91;;;3.52;92.67
72636;BME280;60679;48.888;15.544;2024-02-26T08:18:39;94853.72;;;3.64;92.35
72636;BME280;60679;48.888;15.544;2024-02-26T08:21:05;94863.53;;;3.70;92.12
72636;BME280;60679;48.888;15.544;2024-02-26T08:23:30;94866.19;;;3.70;92.09
72636;BME280;60679;48.888;15.544;2024-02-26T08:25:56;94861.22;;;3.73;91.87
72636;BME280;60679;48.888;15.544;2024-02-26T08:28:21;94866.53;;;3.80;91.87
72636;BME280;60679;48.888;15.544;2024-02-26T08:30:47;94870.94;;;3.92;91.70
72636;BME280;60679;48.888;15.544;2024-02-26T08:33:12;94864.13;;;3.96;91.62
72636;BME280;60679;48.888;15.544;2024-02-26T08:35:38;94866.97;;;4.01;91.61
72636;BME280;60679;48.888;15.544;2024-02-26T08:38:04;94869.88;;;4.00;91.83
72636;BME280;60679;48.888;15.544;2024-02-26T08:40:29;94874.78;;;4.03;91.72
72636;BME280;60679;48.888;15.544;2024-02-26T08:42:55;94871.28;;;4.02;91.70
72636;BME280;60679;48.888;15.544;2024-02-26T08:45:23;94872.69;;;4.05;91.61
72636;BME280;60679;48.888;15.544;2024-02-26T08:47:48;94871.44;;;4.07;91.74
72636;BME280;60679;48.888;15.544;2024-02-26T08:50:14;94865.38;;;4.19;91.57
72636;BME280;60679;48.888;15.544;2024-02-26T08:52:39;94864.91;;;4.28;91.24
72636;BME280;60679;48.888;15.544;2024-02-26T08:55:06;94864.03;;;4.34;91.22
72636;BME280;60679;48.888;15.544;2024-02-26T08:57:33;94867.44;;;4.41;91.01
72636;BME280;60679;48.888;15.544;2024-02-26T08:59:59;94866.78;;;4.46;90.73
72636;BME280;60679;48.888;15.544;2024-02-26T09:02:26;94856.78;;;4.59;90.28
72636;BME280;60679;48.888;15.544;2024-02-26T09:04:51;94869.91;;;4.61;90.22
72636;BME280;60679;48.888;15.544;2024-02-26T09:07:19;94875.56;;;4.53;90.31
72636;BME280;60679;48.888;15.544;2024-02-26T09:09:44;94875.78;;;4.51;90.36
72636;BME280;60679;48.888;15.544;2024-02-26T09:12:10;94876.13;;;4.55;90.52
72636;BME280;60679;48.888;15.544;2024-02-26T09:14:35;94885.31;;;4.65;90.28
72636;BME280;60679;48.888;15.544;2024-02-26T09:17:01;94893.47;;;4.71;90.17
72636;BME280;60679;48.888;15.544;2024-02-26T09:19:26;94897.19;;;4.70;90.15
72636;BME280;60679;48.888;15.544;2024-02-26T09:21:52;94899.03;;;4.69;89.97
72636;BME280;60679;48.888;15.544;2024-02-26T09:24:22;94894.13;;;4.66;90.37
72636;BME280;60679;48.888;15.544;2024-02-26T09:26:48;94897.19;;;4.70;90.47
72636;BME280;60679;48.888;15.544;2024-02-26T09:29:13;94898.81;;;4.71;90.49
72636;BME280;60679;48.888;15.544;2024-02-26T09:31:39;94898.38;;;4.74;90.41
72636;BME280;60679;48.888;15.544;2024-02-26T09:34:06;94902.22;;;4.78;90.08
72636;BME280;60679;48.888;15.544;2024-02-26T09:36:33;94901.28;;;4.90;90.02
72636;BME280;60679;48.888;15.544;2024-02-26T09:38:58;94903.06;;;4.96;89.94
72636;BME280;60679;48.888;15.544;2024-02-26T09:41:26;94915.84;;;4.94;90.23
72636;BME280;60679;48.888;15.544;2024-02-26T09:43:56;94909.06;;;4.92;90.24
72636;BME280;60679;48.888;15.544;2024-02-26T09:46:23;94912.94;;;4.96;90.34
72636;BME280;60679;48.888;15.544;2024-02-26T09:48:49;94918.81;;;5.04;90.07
72636;BME280;60679;48.888;15.544;2024-02-26T09:51:14;94921.19;;;5.12;89.77
72636;BME280;60679;48.888;15.544;2024-02-26T09:53:43;94923.94;;;5.24;89.68
72636;BME280;60679;48.888;15.544;2024-02-26T09:56:11;94924.75;;;5.43;89.34
72636;BME280;60679;48.888;15.544;2024-02-26T09:58:39;94939.00;;;5.55;89.06
72636;BME280;60679;48.888;15.544;2024-02-26T10:01:13;94932.94;;;5.77;88.53
72636;BME280;60679;48.888;15.544;2024-02-26T10:03:41;94924.09;;;5.95;87.97
72636;BME280;60679;48.888;15.544;2024-02-26T10:06:08;94926.19;;;6.05;87.92
72636;BME280;60679;48.888;15.544;2024-02-26T10:08:35;94928.78;;;6.11;87.90
72636;BME280;60679;48.888;15.544;2024-02-26T10:11:00;94936.44;;;6.08;88.13
72636;BME280;60679;48.888;15.544;2024-02-26T10:13:26;94934.13;;;6.11;88.22
72636;BME280;60679;48.888;15.544;2024-02-26T10:15:52;94940.44;;;6.17;87.81
72636;BME280;60679;48.888;15.544;2024-02-26T10:18:17;94927.34;;;6.50;87.86
72636;BME280;60679;48.888;15.544;2024-02-26T10:20:59;94940.31;;;6.76;86.85
72636;BME280;60679;48.888;15.544;2024-02-26T10:23:25;94944.75;;;6.71;86.99
72636;BME280;60679;48.888;15.544;2024-02-26T10:25:54;94941.47;;;6.80;86.97
72636;BME280;60679;48.888;15.544;2024-02-26T10:28:20;94945.88;;;6.75;86.90
72636;BME280;60679;48.888;15.544;2024-02-26T10:30:46;94945.66;;;6.76;86.75
72636;BME280;60679;48.888;15.544;2024-02-26T10:33:12;94940.22;;;6.83;86.91
72636;BME280;60679;48.888;15.544;2024-02-26T10:35:40;94939.03;;;6.90;86.58
72636;BME280;60679;48.888;15.544;2024-02-26T10:38:10;94945.56;;;6.83;86.33
72636;BME280;60679;48.888;15.544;2024-02-26T10:40:35;94945.09;;;6.74;86.62
72636;BME280;60679;48.888;15.544;2024-02-26T10:43:01;94946.72;;;6.75;86.88
72636;BME280;60679;48.888;15.544;2024-02-26T10:45:27;94945.66;;;6.76;87.11
72636;BME280;60679;48.888;15.544;2024-02-26T10:47:53;94940.06;;;6.89;86.67
72636;BME280;60679;48.888;15.544;2024-02-26T10:50:19;94946.91;;;7.32;86.12
72636;BME280;60679;48.888;15.544;2024-02-26T10:52:45;94936.25;;;7.48;85.70
72636;BME280;60679;48.888;15.544;2024-02-26T10:55:15;94935.06;;;7.68;85.23
72636;BME280;60679;48.888;15.544;2024-02-26T10:57:45;94932.66;;;8.11;84.31
72636;BME280;60679;48.888;15.544;2024-02-26T11:00:14;94921.69;;;9.12;82.09
72636;BME280;60679;48.888;15.544;2024-02-26T11:02:41;94923.56;;;10.15;79.70
72636;BME280;60679;48.888;15.544;2024-02-26T11:05:07;94915.63;;;10.09;79.11
72636;BME280;60679;48.888;15.544;2024-02-26T11:07:36;94917.34;;;10.15;79.01
72636;BME280;60679;48.888;15.544;2024-02-26T11:10:03;94918.72;;;10.17;77.62
72636;BME280;60679;48.888;15.544;2024-02-26T11:12:30;94915.19;;;11.12;77.01
72636;BME280;60679;48.888;15.544;2024-02-26T11:14:57;94919.47;;;12.02;74.14
72636;BME280;60679;48.888;15.544;2024-02-26T11:17:27;94912.28;;;12.73;73.58
72636;BME280;60679;48.888;15.544;2024-02-26T11:19:55;94911.34;;;14.48;70.94
72636;BME280;60679;48.888;15.544;2024-02-26T11:22:21;94915.13;;;14.85;69.66
72636;BME280;60679;48.888;15.544;2024-02-26T11:24:48;94916.03;;;13.53;71.21
72636;BME280;60679;48.888;15.544;2024-02-26T11:27:16;94916.09;;;12.87;72.72
72636;BME280;60679;48.888;15.544;2024-02-26T11:29:52;94922.00;;;12.39;74.36
72636;BME280;60679;48.888;15.544;2024-02-26T11:32:18;94915.97;;;12.01;75.65
72636;BME280;60679;48.888;15.544;2024-02-26T11:34:44;94929.19;;;12.03;76.95
72636;BME280;60679;48.888;15.544;2024-02-26T11:37:11;94926.13;;;12.92;73.52
72636;BME280;60679;48.888;15.544;2024-02-26T11:39:39;94923.91;;;12.33;73.32
72636;BME280;60679;48.888;15.544;2024-02-26T11:42:08;94925.50;;;11.62;75.56
72636;BME280;60679;48.888;15.544;2024-02-26T11:44:34;94928.28;;;11.72;76.67
72636;BME280;60679;48.888;15.544;2024-02-26T11:49:36;94916.09;;;14.66;72.36
72636;BME280;60679;48.888;15.544;2024-02-26T11:52:06;94902.53;;;17.35;66.18
72636;BME280;60679;48.888;15.544;2024-02-26T11:57:03;94903.03;;;15.88;67.63
72636;BME280;60679;48.888;15.544;2024-02-26T11:59:38;94906.19;;;15.47;69.76
72636;BME280;60679;48.888;15.544;2024-02-26T12:02:07;94907.06;;;14.26;71.51
72636;BME280;60679;48.888;15.544;2024-02-26T12:04:32;94903.28;;;13.53;73.07
72636;BME280;60679;48.888;15.544;2024-02-26T12:07:03;94907.69;;;12.73;74.72
72636;BME280;60679;48.888;15.544;2024-02-26T12:09:41;94899.84;;;12.77;75.07
72636;BME280;60679;48.888;15.544;2024-02-26T12:12:08;94898.47;;;12.54;76.17
72636;BME280;60679;48.888;15.544;2024-02-26T12:14:50;94908.22;;;12.60;75.58
72636;BME280;60679;48.888;15.544;2024-02-26T12:17:24;94907.41;;;12.90;74.78
72636;BME280;60679;48.888;15.544;2024-02-26T12:19:50;94905.22;;;13.48;74.55
72636;BME280;60679;48.888;15.544;2024-02-26T12:22:16;94905.50;;;15.32;71.32
72636;BME280;60679;48.888;15.544;2024-02-26T12:24:42;94903.22;;;16.76;68.55
72636;BME280;60679;48.888;15.544;2024-02-26T12:27:14;94909.41;;;16.21;68.80
72636;BME280;60679;48.888;15.544;2024-02-26T12:29:40;94911.94;;;15.12;69.28
72636;BME280;60679;48.888;15.544;2024-02-26T12:32:05;94904.16;;;15.00;70.63
72636;BME280;60679;48.888;15.544;2024-02-26T12:34:31;94909.66;;;15.53;70.25
72636;BME280;60679;48.888;15.544;2024-02-26T12:36:57;94904.59;;;15.08;70.98
72636;BME280;60679;48.888;15.544;2024-02-26T12:39:23;94903.88;;;14.63;72.53
72636;BME280;60679;48.888;15.544;2024-02-26T12:41:49;94897.66;;;14.14;72.83
72636;BME280;60679;48.888;15.544;2024-02-26T12:44:18;94906.16;;;13.87;73.16
72636;BME280;60679;48.888;15.544;2024-02-26T12:46:44;94901.72;;;13.22;74.67
72636;BME280;60679;48.888;15.544;2024-02-26T12:49:15;94904.69;;;12.50;75.46
72636;BME280;60679;48.888;15.544;2024-02-26T12:51:41;94909.16;;;11.94;77.86
72636;BME280;60679;48.888;15.544;2024-02-26T12:54:07;94906.59;;;11.67;78.76